Flight Track Log - Related Links

Times and Time Zones

All times are in EST time to prevent confusion due to time zone crossing. See the QLK117D flight status page for this flight to view local times or setup timezone preferences in your user account.

Time Position Orientation Groundspeed Altitude Reporting Facility
EST Latitude Longitude Course Direction KTS MPH feet Rate Location/Type
Tue 01:06:28 AM -30.3512 153.1691 237° Southwest 285 328 3,400  Level Aus ATC (RADAR)
Tue 01:06:53 AM -30.3649 153.1452 237° Southwest 229 264 4,400 1,900 Climbing Aus ATC (RADAR)
Tue 01:07:28 AM -30.3711 153.1001 261° West 236 272 5,300 1,950 Climbing Aus ATC (RADAR)
Tue 01:08:13 AM -30.4004 153.0583 231° Southwest 217 250 7,000 1,875 Climbing Aus ATC (RADAR)
Tue 01:08:48 AM -30.4306 153.0310 218° Southwest 231 266 7,800 1,543 Climbing Aus ATC (RADAR)
Tue 01:09:23 AM -30.4644 153.0037 215° Southwest 249 287 8,800 1,629 Climbing Aus ATC (RADAR)
Tue 01:09:58 AM -30.4982 152.9767 215° Southwest 253 291 9,700 1,417 Climbing Aus ATC (RADAR)
Tue 01:10:35 AM -30.5333 152.9484 215° Southwest 262 302 10,500 1,314 Climbing Aus ATC (RADAR)
Tue 01:11:43 AM -30.6042 152.8905 215° Southwest 271 312 12,000 1,295 Climbing Aus ATC (RADAR)
Tue 01:12:03 AM -30.6254 152.8732 215° Southwest 275 316 12,400 1,309 Climbing Aus ATC (RADAR)
Tue 01:12:38 AM -30.6614 152.8430 216° Southwest 274 315 13,200 1,215 Climbing Aus ATC (RADAR)
Tue 01:13:22 AM -30.7093 152.8038 215° Southwest 281 323 14,000 1,291 Climbing Aus ATC (RADAR)
Tue 01:13:57 AM -30.7472 152.7732 215° Southwest 284 327 14,900 1,275 Climbing Aus ATC (RADAR)
Tue 01:14:42 AM -30.7954 152.7340 215° Southwest 285 328 15,700 1,029 Climbing Aus ATC (RADAR)
Tue 01:15:07 AM -30.8225 152.7120 215° Southwest 287 330 16,100 1,000 Climbing Aus ATC (RADAR)
Tue 01:15:42 AM -30.8612 152.6802 215° Southwest 291 335 16,700 1,011 Climbing Aus ATC (RADAR)
Tue 01:16:42 AM -30.9268 152.6257 215° Southwest 291 335 17,700 975 Climbing Aus ATC (RADAR)
Tue 01:17:02 AM -30.9490 152.6073 215° Southwest 293 337 18,000 982 Climbing Aus ATC (RADAR)
Tue 01:17:37 AM -30.9878 152.5756 215° Southwest 293 337 18,600 975 Climbing Aus ATC (RADAR)
Tue 01:18:22 AM -31.0379 152.5340 215° Southwest 294 338 19,300 1,059 Climbing Aus ATC (RADAR)
Tue 01:19:02 AM -31.0818 152.4984 215° Southwest 290 334 20,100 1,015 Climbing Aus ATC (RADAR)
Tue 01:19:27 AM -31.1097 152.4746 216° Southwest 295 339 20,400 923 Climbing Aus ATC (RADAR)
Tue 01:20:07 AM -31.1538 152.4382 215° Southwest 292 336 21,100 960 Climbing Aus ATC (RADAR)
Tue 01:20:42 AM -31.1927 152.4067 215° Southwest 292 336 21,600 574 Climbing Aus ATC (RADAR)
Tue 01:21:41 AM -31.2603 152.3506 215° Southwest 304 350 22,000 286 Climbing Aus ATC (RADAR)
Tue 01:22:06 AM -31.2899 152.3254 216° Southwest 313 360 22,000  Level Aus ATC (RADAR)
Tue 01:22:41 AM -31.3335 152.2892 215° Southwest 328 377 22,000  Level Aus ATC (RADAR)
Tue 01:23:31 AM -31.3975 152.2365 215° Southwest 338 389 22,000  Level Aus ATC (RADAR)
Tue 01:24:06 AM -31.4428 152.1979 216° Southwest 345 397 22,000  Level Aus ATC (RADAR)
Tue 01:24:51 AM -31.5018 152.1482 216° Southwest 349 402 22,000  Level Aus ATC (RADAR)
Tue 01:25:16 AM -31.5346 152.1206 216° Southwest 350 403 22,000  Level Aus ATC (RADAR)
Tue 01:25:51 AM -31.5809 152.0817 216° Southwest 352 405 22,000  Level Aus ATC (RADAR)
Tue 01:26:41 AM -31.6471 152.0260 216° Southwest 356 410 22,000  Level Aus ATC (RADAR)
Tue 01:27:06 AM -31.6803 151.9980 216° Southwest 355 409 22,000  Level Aus ATC (RADAR)
Tue 01:27:46 AM -31.7333 151.9525 216° Southwest 355 409 22,000  Level Aus ATC (RADAR)
Tue 01:28:31 AM -31.7931 151.9023 215° Southwest 353 406 22,000  Level Aus ATC (RADAR)
Tue 01:29:11 AM -31.8459 151.8578 216° Southwest 353 406 22,000  Level Aus ATC (RADAR)
Tue 01:29:36 AM -31.8790 151.8297 216° Southwest 353 406 22,000  Level Aus ATC (RADAR)
Tue 01:30:11 AM -31.9253 151.7906 216° Southwest 353 406 22,000  Level Aus ATC (RADAR)
Tue 01:30:46 AM -31.9698 151.7543 215° Southwest 344 396 22,000  Level Aus ATC (RADAR)
Tue 01:32:05 AM -32.0758 151.6638 216° Southwest 346 398 22,000  Level Aus ATC (RADAR)
Tue 01:32:30 AM -32.1082 151.6358 216° Southwest 348 400 22,000  Level Aus ATC (RADAR)
Tue 01:33:20 AM -32.1732 151.5813 215° Southwest 347 399 22,000  Level Aus ATC (RADAR)
Tue 01:33:45 AM -32.2055 151.5536 216° Southwest 345 397 22,000  Level Aus ATC (RADAR)
Tue 01:34:20 AM -32.2508 151.5155 215° Southwest 345 397 22,000  Level Aus ATC (RADAR)
Tue 01:35:10 AM -32.3150 151.4603 216° Southwest 344 396 22,000  Level Aus ATC (RADAR)
Tue 01:35:50 AM -32.3662 151.4166 216° Southwest 343 395 22,000  Level Aus ATC (RADAR)
Tue 01:37:09 AM -32.4668 151.3312 216° Southwest 335 386 22,000  Level Aus ATC (RADAR)
Tue 01:37:25 AM -32.4876 151.3134 216° Southwest 340 391 22,000  Level Aus ATC (RADAR)
Tue 01:38:00 AM -32.5321 151.2751 216° Southwest 339 390 22,000 -150 Level Aus ATC (RADAR)
Tue 01:38:45 AM -32.5976 151.2525 196° South 330 380 21,800 -571 Descending Aus ATC (RADAR)
Tue 01:39:24 AM -32.6573 151.2504 182° South 332 382 21,200 -1,200 Descending Aus ATC (RADAR)
Tue 01:39:55 AM -32.7049 151.2493 181° South 323 372 20,400 -1,307 Descending Aus ATC (RADAR)
Tue 01:41:05 AM -32.8122 151.2439 182° South 326 375 19,000 -828 Descending Aus ATC (RADAR)
Tue 01:42:49 AM -32.9647 151.2357 183° South 300 345 18,000 -448 Descending Aus ATC (RADAR)
Tue 01:43:19 AM -32.9973 151.2055 218° Southwest 307 353 18,000  Level Aus ATC (RADAR)
Tue 01:44:44 AM -32.9200 151.1108 314° West 331 381 18,000  Level Aus ATC (RADAR)
Tue 01:45:39 AM -32.8354 151.1118 North 322 371 18,000  Level Aus ATC (RADAR)
Tue 01:46:09 AM -32.7897 151.1129 North 325 374 18,000  Level Aus ATC (RADAR)
Tue 01:47:54 AM -32.6282 151.1161 North 331 381 18,000  Level Aus ATC (RADAR)
Tue 01:48:19 AM -32.5901 151.1211 North 331 381 18,000  Level Aus ATC (RADAR)
Tue 01:49:19 AM -32.5562 151.2079 65° Northeast 302 348 18,000 71 Level Aus ATC (RADAR)
Tue 01:49:44 AM -32.5787 151.2411 129° Southeast 299 344 18,100  Climbing Aus ATC (RADAR)
Tue 01:50:23 AM -32.6321 151.2513 171° South 311 358 18,000 -64 Descending Aus ATC (RADAR)
Tue 01:51:18 AM -32.7104 151.2461 183° South 299 344 18,000  Level Aus ATC (RADAR)
Tue 01:51:58 AM -32.7665 151.2426 183° South 299 344 18,000  Level Aus ATC (RADAR)
Tue 01:52:43 AM -32.8314 151.2393 182° South 312 359 18,000  Level Aus ATC (RADAR)
Tue 01:52:58 AM -32.8535 151.2383 182° South 314 361 18,000  Level Aus ATC (RADAR)
Tue 01:53:33 AM -32.9055 151.2354 183° South 318 366 18,000  Level Aus ATC (RADAR)
Tue 01:54:28 AM -32.9849 151.2321 182° South 320 368 18,000 -467 Level Aus ATC (RADAR)
Tue 01:55:03 AM -33.0388 151.2287 183° South 314 361 17,300 -1,350 Descending Aus ATC (RADAR)
Tue 01:55:48 AM -33.1006 151.2277 181° South 293 337 16,200 -1,477 Descending Aus ATC (RADAR)
Tue 01:56:08 AM -33.1271 151.2259 183° South 287 330 15,700 -1,371 Descending Aus ATC (RADAR)
Tue 01:56:58 AM -33.1899 151.2225 183° South 266 306 14,600 -1,326 Descending Aus ATC (RADAR)
Tue 01:57:43 AM -33.2426 151.2195 183° South 248 285 13,600 -1,271 Descending Aus ATC (RADAR)
Tue 01:58:23 AM -33.2877 151.2177 182° South 240 276 12,800 -1,200 Descending Aus ATC (RADAR)
Tue 01:59:18 AM -33.3504 151.2150 182° South 245 282 11,700 -1,213 Descending Aus ATC (RADAR)
Tue 01:59:57 AM -33.3988 151.2115 183° South 262 302 10,900 -1,333 Descending Aus ATC (RADAR)
Tue 02:00:48 AM -33.4619 151.2071 183° South 264 304 9,700 -1,412 Descending Aus ATC (RADAR)
Tue 02:01:22 AM -33.5047 151.2052 182° South 258 297 8,900 -1,263 Descending Aus ATC (RADAR)
Tue 02:02:42 AM -33.5947 151.2009 182° South 233 268 7,300 -1,200 Descending Aus ATC (RADAR)
Tue 02:03:07 AM -33.6217 151.1992 183° South 230 265 6,800 -1,200 Descending Aus ATC (RADAR)
Tue 02:03:42 AM -33.6591 151.1958 184° South 228 262 6,100 -1,213 Descending Aus ATC (RADAR)
Tue 02:04:36 AM -33.7139 151.1776 195° South 226 260 5,000 -1,267 Descending Aus ATC (RADAR)
Tue 02:05:12 AM -33.7505 151.1667 194° South 224 258 4,200 -1,319 Descending Aus ATC (RADAR)
Tue 02:06:07 AM -33.8037 151.1509 194° South 206 237 3,000 -1,148 Descending Aus ATC (RADAR)
Tue 02:07:07 AM -33.8481 151.1621 168° South 138 159 2,000 -867 Descending Aus ATC (RADAR)
Tue 02:07:37 AM -33.8658 151.1668 168° South 128 147 1,700 -655 Descending Aus ATC (RADAR)
Tue 02:08:02 AM -33.8809 151.1710 167° South 130 150 1,400 -655 Descending Aus ATC (RADAR)
Tue 02:08:32 AM -33.8997 151.1756 169° South 134 154 1,100 -667 Descending Aus ATC (RADAR)
Tue 02:09:41 AM -33.9390 151.1856 168° South 122 140 300 -696 Descending Aus ATC (RADAR)

Login

Don't have an account? Register now (free) for customized features, flight alerts, and more!